sensor_id;sensor_type;location;lat;lon;timestamp;pressure;altitude;pressure_sealevel;temperature;humidity
68656;BME280;55638;51.122;13.606;2022-08-04T00:00:36;99953.28;;;21.69;34.68
68656;BME280;55638;51.122;13.606;2022-08-04T00:02:37;99949.03;;;21.67;34.75
68656;BME280;55638;51.122;13.606;2022-08-04T00:04:20;99948.63;;;21.63;34.79
68656;BME280;55638;51.122;13.606;2022-08-04T00:06:04;99948.41;;;21.58;34.64
68656;BME280;55638;51.122;13.606;2022-08-04T00:09:29;99952.22;;;21.50;35.18
68656;BME280;55638;51.122;13.606;2022-08-04T00:11:03;99953.47;;;21.48;34.79
68656;BME280;55638;51.122;13.606;2022-08-04T00:12:37;99956.88;;;21.43;34.95
68656;BME280;55638;51.122;13.606;2022-08-04T00:14:14;99953.50;;;21.41;35.11
68656;BME280;55638;51.122;13.606;2022-08-04T00:15:51;99951.41;;;21.37;35.42
68656;BME280;55638;51.122;13.606;2022-08-04T00:17:28;99957.31;;;21.34;35.60
68656;BME280;55638;51.122;13.606;2022-08-04T00:19:03;99957.72;;;21.30;35.43
68656;BME280;55638;51.122;13.606;2022-08-04T00:20:40;99946.94;;;21.29;35.39
68656;BME280;55638;51.122;13.606;2022-08-04T00:22:15;99956.66;;;21.25;35.47
68656;BME280;55638;51.122;13.606;2022-08-04T00:23:50;99952.44;;;21.22;35.53
68656;BME280;55638;51.122;13.606;2022-08-04T00:25:42;99961.75;;;21.21;35.13
68656;BME280;55638;51.122;13.606;2022-08-04T00:27:15;99963.22;;;21.17;35.25
68656;BME280;55638;51.122;13.606;2022-08-04T00:28:47;99960.91;;;21.14;35.53
68656;BME280;55638;51.122;13.606;2022-08-04T00:30:19;99966.81;;;21.11;35.69
68656;BME280;55638;51.122;13.606;2022-08-04T00:31:51;99963.44;;;21.09;35.65
68656;BME280;55638;51.122;13.606;2022-08-04T00:33:28;99959.44;;;21.05;35.78
68656;BME280;55638;51.122;13.606;2022-08-04T00:35:01;99957.94;;;21.02;35.77
68656;BME280;55638;51.122;13.606;2022-08-04T00:36:33;99958.34;;;20.99;35.74
68656;BME280;55638;51.122;13.606;2022-08-04T00:38:07;99964.06;;;20.98;36.37
68656;BME280;55638;51.122;13.606;2022-08-04T00:39:39;99964.50;;;20.95;35.85
68656;BME280;55638;51.122;13.606;2022-08-04T00:41:21;99960.44;;;20.91;36.60
68656;BME280;55638;51.122;13.606;2022-08-04T00:43:14;99967.81;;;20.83;37.85
68656;BME280;55638;51.122;13.606;2022-08-04T00:54:37;99963.34;;;20.63;37.16
68656;BME280;55638;51.122;13.606;2022-08-04T00:56:26;99963.97;;;20.58;37.06
68656;BME280;55638;51.122;13.606;2022-08-04T01:00:19;99964.38;;;20.48;36.92
68656;BME280;55638;51.122;13.606;2022-08-04T01:04:02;99966.88;;;20.43;37.01
68656;BME280;55638;51.122;13.606;2022-08-04T01:06:05;99967.72;;;20.37;37.55
68656;BME280;55638;51.122;13.606;2022-08-04T01:11:30;99966.63;;;20.31;37.43
68656;BME280;55638;51.122;13.606;2022-08-04T01:17:36;99970.38;;;20.24;37.55
68656;BME280;55638;51.122;13.606;2022-08-04T01:19:28;99966.56;;;20.25;37.64
68656;BME280;55638;51.122;13.606;2022-08-04T01:21:29;99977.09;;;20.21;37.76
68656;BME280;55638;51.122;13.606;2022-08-04T01:23:20;99969.09;;;20.20;38.63
68656;BME280;55638;51.122;13.606;2022-08-04T01:27:03;99972.03;;;20.18;37.65
68656;BME280;55638;51.122;13.606;2022-08-04T01:28:56;99964.88;;;20.17;38.07
68656;BME280;55638;51.122;13.606;2022-08-04T01:30:32;99960.63;;;20.14;37.57
68656;BME280;55638;51.122;13.606;2022-08-04T01:32:06;99970.75;;;20.14;37.92
68656;BME280;55638;51.122;13.606;2022-08-04T01:33:45;99962.75;;;20.12;37.84
68656;BME280;55638;51.122;13.606;2022-08-04T01:39:19;99964.41;;;20.07;37.75
68656;BME280;55638;51.122;13.606;2022-08-04T01:41:13;99977.66;;;20.03;38.31
68656;BME280;55638;51.122;13.606;2022-08-04T01:42:45;99967.13;;;20.00;37.78
68656;BME280;55638;51.122;13.606;2022-08-04T01:44:20;99972.78;;;19.99;37.92
68656;BME280;55638;51.122;13.606;2022-08-04T01:45:59;99974.91;;;19.97;38.62
68656;BME280;55638;51.122;13.606;2022-08-04T01:47:34;99966.03;;;19.95;38.42
68656;BME280;55638;51.122;13.606;2022-08-04T01:49:06;99967.28;;;19.92;38.04
68656;BME280;55638;51.122;13.606;2022-08-04T01:50:39;99964.75;;;19.90;38.29
68656;BME280;55638;51.122;13.606;2022-08-04T01:52:13;99962.19;;;19.89;38.53
68656;BME280;55638;51.122;13.606;2022-08-04T01:53:46;99960.72;;;19.86;38.27
68656;BME280;55638;51.122;13.606;2022-08-04T01:55:18;99960.06;;;19.84;38.47
68656;BME280;55638;51.122;13.606;2022-08-04T01:56:52;99966.63;;;19.83;38.62
68656;BME280;55638;51.122;13.606;2022-08-04T01:58:28;99959.41;;;19.82;38.59
68656;BME280;55638;51.122;13.606;2022-08-04T02:00:01;99965.97;;;19.81;38.24
68656;BME280;55638;51.122;13.606;2022-08-04T02:01:35;99961.31;;;19.82;38.65
68656;BME280;55638;51.122;13.606;2022-08-04T02:03:08;99968.03;;;19.79;38.45
68656;BME280;55638;51.122;13.606;2022-08-04T02:04:40;99963.63;;;19.78;38.72
68656;BME280;55638;51.122;13.606;2022-08-04T02:06:32;99966.09;;;19.73;39.02
68656;BME280;55638;51.122;13.606;2022-08-04T02:11:27;99962.53;;;19.73;38.82
68656;BME280;55638;51.122;13.606;2022-08-04T02:13:22;99960.41;;;19.68;39.57
68656;BME280;55638;51.122;13.606;2022-08-04T02:15:03;99952.81;;;19.70;39.22
68656;BME280;55638;51.122;13.606;2022-08-04T02:16:48;99956.59;;;19.69;39.38
68656;BME280;55638;51.122;13.606;2022-08-04T02:18:30;99961.25;;;19.68;39.37
68656;BME280;55638;51.122;13.606;2022-08-04T02:20:08;99954.91;;;19.68;39.48
68656;BME280;55638;51.122;13.606;2022-08-04T02:21:44;99954.91;;;19.68;38.88
68656;BME280;55638;51.122;13.606;2022-08-04T02:23:29;99950.50;;;19.67;39.69
68656;BME280;55638;51.122;13.606;2022-08-04T02:25:09;99953.25;;;19.67;39.42
68656;BME280;55638;51.122;13.606;2022-08-04T02:26:44;99954.91;;;19.68;39.07
68656;BME280;55638;51.122;13.606;2022-08-04T02:28:33;99949.84;;;19.65;39.37
68656;BME280;55638;51.122;13.606;2022-08-04T02:30:06;99950.50;;;19.67;38.94
68656;BME280;55638;51.122;13.606;2022-08-04T02:31:51;99949.44;;;19.68;39.35
68656;BME280;55638;51.122;13.606;2022-08-04T02:33:33;99943.97;;;19.68;39.24
68656;BME280;55638;51.122;13.606;2022-08-04T02:35:08;99940.16;;;19.69;39.13
68656;BME280;55638;51.122;13.606;2022-08-04T02:36:42;99942.06;;;19.68;39.21
68656;BME280;55638;51.122;13.606;2022-08-04T02:38:30;99938.66;;;19.66;39.47
68656;BME280;55638;51.122;13.606;2022-08-04T02:40:05;99942.72;;;19.71;39.01
68656;BME280;55638;51.122;13.606;2022-08-04T02:41:38;99939.09;;;19.70;39.27
68656;BME280;55638;51.122;13.606;2022-08-04T02:43:11;99940.81;;;19.71;39.12
68656;BME280;55638;51.122;13.606;2022-08-04T02:44:56;99935.94;;;19.66;40.35
68656;BME280;55638;51.122;13.606;2022-08-04T02:46:29;99940.16;;;19.69;39.07
68656;BME280;55638;51.122;13.606;2022-08-04T02:48:02;99939.09;;;19.70;39.26
68656;BME280;55638;51.122;13.606;2022-08-04T02:49:56;99934.50;;;19.71;39.48
68656;BME280;55638;51.122;13.606;2022-08-04T02:51:36;99930.25;;;19.68;40.15
68656;BME280;55638;51.122;13.606;2022-08-04T02:53:10;99930.88;;;19.70;39.24
68656;BME280;55638;51.122;13.606;2022-08-04T02:54:46;99932.59;;;19.71;39.48
68656;BME280;55638;51.122;13.606;2022-08-04T02:56:20;99926.28;;;19.71;39.45
68656;BME280;55638;51.122;13.606;2022-08-04T02:57:57;99930.88;;;19.70;39.63
68656;BME280;55638;51.122;13.606;2022-08-04T03:00:20;99929.22;;;19.69;39.87
68656;BME280;55638;51.122;13.606;2022-08-04T03:01:27;99930.88;;;19.70;39.23
68656;BME280;55638;51.122;13.606;2022-08-04T03:05:02;99928.59;;;19.67;39.66
68656;BME280;55638;51.122;13.606;2022-08-04T03:06:57;99926.88;;;19.66;39.89
68656;BME280;55638;51.122;13.606;2022-08-04T03:10:40;99930.66;;;19.65;39.49
68656;BME280;55638;51.122;13.606;2022-08-04T03:14:04;99932.97;;;19.61;40.53
68656;BME280;55638;51.122;13.606;2022-08-04T03:21:41;99933.13;;;19.60;40.03
68656;BME280;55638;51.122;13.606;2022-08-04T03:27:12;99937.59;;;19.61;39.78
68656;BME280;55638;51.122;13.606;2022-08-04T03:29:08;99940.97;;;19.63;39.79
68656;BME280;55638;51.122;13.606;2022-08-04T03:33:34;99938.22;;;19.63;40.18
68656;BME280;55638;51.122;13.606;2022-08-04T04:01:44;99947.84;;;19.80;39.56
68656;BME280;55638;51.122;13.606;2022-08-04T04:04:02;99950.56;;;19.80;40.24
68656;BME280;55638;51.122;13.606;2022-08-04T04:05:48;99949.53;;;19.88;39.46
68656;BME280;55638;51.122;13.606;2022-08-04T04:07:56;99951.84;;;19.84;40.41
68656;BME280;55638;51.122;13.606;2022-08-04T04:10:07;99955.88;;;19.88;39.81
68656;BME280;55638;51.122;13.606;2022-08-04T04:13:53;99950.41;;;19.95;39.30
68656;BME280;55638;51.122;13.606;2022-08-04T04:23:30;99955.75;;;20.03;39.49
68656;BME280;55638;51.122;13.606;2022-08-04T04:27:08;99955.97;;;20.08;39.51
68656;BME280;55638;51.122;13.606;2022-08-04T04:28:56;99965.03;;;20.09;39.54
68656;BME280;55638;51.122;13.606;2022-08-04T04:31:01;99961.25;;;20.10;39.38
68656;BME280;55638;51.122;13.606;2022-08-04T04:33:02;99962.75;;;20.12;39.54
68656;BME280;55638;51.122;13.606;2022-08-04T04:40:33;99961.91;;;20.19;39.83
68656;BME280;55638;51.122;13.606;2022-08-04T04:42:23;99961.09;;;20.25;39.10
68656;BME280;55638;51.122;13.606;2022-08-04T04:44:08;99972.06;;;20.25;39.25
68656;BME280;55638;51.122;13.606;2022-08-04T04:46:05;99973.13;;;20.24;39.47
68656;BME280;55638;51.122;13.606;2022-08-04T04:47:55;99961.09;;;20.25;39.35
68656;BME280;55638;51.122;13.606;2022-08-04T04:49:58;99967.41;;;20.25;39.50
68656;BME280;55638;51.122;13.606;2022-08-04T04:51:42;99956.06;;;20.28;39.03
68656;BME280;55638;51.122;13.606;2022-08-04T04:53:19;99966.63;;;20.31;39.33
68656;BME280;55638;51.122;13.606;2022-08-04T04:55:04;99963.88;;;20.31;39.42
68656;BME280;55638;51.122;13.606;2022-08-04T04:56:50;99970.84;;;20.34;39.04
68656;BME280;55638;51.122;13.606;2022-08-04T04:58:25;99966.88;;;20.36;39.01
68656;BME280;55638;51.122;13.606;2022-08-04T04:59:59;99965.63;;;20.39;38.81
68656;BME280;55638;51.122;13.606;2022-08-04T05:06:56;99964.56;;;20.40;39.35
68656;BME280;55638;51.122;13.606;2022-08-04T05:09:02;99964.97;;;20.44;39.14
68656;BME280;55638;51.122;13.606;2022-08-04T05:13:07;99962.66;;;20.47;39.45
68656;BME280;55638;51.122;13.606;2022-08-04T05:15:06;99965.66;;;20.59;39.39
68656;BME280;55638;51.122;13.606;2022-08-04T05:16:47;99963.78;;;20.66;39.25
68656;BME280;55638;51.122;13.606;2022-08-04T05:18:24;99966.53;;;20.86;39.39
68656;BME280;55638;51.122;13.606;2022-08-04T05:22:01;99958.56;;;21.24;38.74
68656;BME280;55638;51.122;13.606;2022-08-04T05:23:36;99970.19;;;21.53;39.16
68656;BME280;55638;51.122;13.606;2022-08-04T05:25:27;99970.78;;;21.82;38.04
68656;BME280;55638;51.122;13.606;2022-08-04T05:27:05;99974.25;;;22.15;38.58
68656;BME280;55638;51.122;13.606;2022-08-04T05:28:42;99963.97;;;22.49;38.44
68656;BME280;55638;51.122;13.606;2022-08-04T05:30:17;99967.16;;;22.84;37.85
68656;BME280;55638;51.122;13.606;2022-08-04T05:31:51;99955.88;;;23.18;37.74
68656;BME280;55638;51.122;13.606;2022-08-04T05:33:26;99963.66;;;23.52;36.69
68656;BME280;55638;51.122;13.606;2022-08-04T05:35:08;99962.00;;;23.88;36.05
68656;BME280;55638;51.122;13.606;2022-08-04T05:36:49;99963.34;;;24.22;35.25
68656;BME280;55638;51.122;13.606;2022-08-04T05:38:33;99964.59;;;24.57;35.58
68656;BME280;55638;51.122;13.606;2022-08-04T05:40:06;99962.78;;;24.92;35.24
68656;BME280;55638;51.122;13.606;2022-08-04T05:41:40;99964.19;;;25.25;34.86
68656;BME280;55638;51.122;13.606;2022-08-04T05:43:17;99961.56;;;25.54;34.34
68656;BME280;55638;51.122;13.606;2022-08-04T05:44:50;99964.19;;;25.84;33.89
68656;BME280;55638;51.122;13.606;2022-08-04T05:46:22;99965.34;;;26.11;33.48
68656;BME280;55638;51.122;13.606;2022-08-04T05:47:55;99957.59;;;26.37;33.12
68656;BME280;55638;51.122;13.606;2022-08-04T05:49:27;99965.81;;;26.60;32.50
68656;BME280;55638;51.122;13.606;2022-08-04T05:51:00;99964.38;;;26.87;32.19
68656;BME280;55638;51.122;13.606;2022-08-04T05:52:34;99969.78;;;27.10;32.00
68656;BME280;55638;51.122;13.606;2022-08-04T05:54:07;99966.00;;;27.33;31.43
68656;BME280;55638;51.122;13.606;2022-08-04T05:55:40;99964.41;;;27.54;31.13
68656;BME280;55638;51.122;13.606;2022-08-04T05:57:29;99967.81;;;27.78;31.32
68656;BME280;55638;51.122;13.606;2022-08-04T05:59:02;99968.09;;;27.98;30.87
68656;BME280;55638;51.122;13.606;2022-08-04T06:00:36;99963.34;;;28.16;29.98
68656;BME280;55638;51.122;13.606;2022-08-04T06:02:13;99973.06;;;28.35;29.81
68656;BME280;55638;51.122;13.606;2022-08-04T06:03:47;99968.53;;;28.51;30.04
68656;BME280;55638;51.122;13.606;2022-08-04T06:05:21;99967.59;;;28.67;29.65
68656;BME280;55638;51.122;13.606;2022-08-04T06:06:53;99965.56;;;28.85;29.68
68656;BME280;55638;51.122;13.606;2022-08-04T06:08:25;99966.53;;;29.01;29.06
68656;BME280;55638;51.122;13.606;2022-08-04T06:09:57;99965.81;;;29.15;28.81
68656;BME280;55638;51.122;13.606;2022-08-04T06:11:29;99974.28;;;29.31;28.68
68656;BME280;55638;51.122;13.606;2022-08-04T06:13:27;99976.09;;;29.47;27.02
68656;BME280;55638;51.122;13.606;2022-08-04T06:15:20;99974.00;;;29.65;28.59
68656;BME280;55638;51.122;13.606;2022-08-04T06:16:56;99977.69;;;29.80;27.98
68656;BME280;55638;51.122;13.606;2022-08-04T06:18:28;99974.47;;;29.94;27.86
68656;BME280;55638;51.122;13.606;2022-08-04T06:20:26;99971.50;;;30.11;27.73
68656;BME280;55638;51.122;13.606;2022-08-04T06:22:06;99972.66;;;30.25;27.53
68656;BME280;55638;51.122;13.606;2022-08-04T06:23:41;99966.91;;;30.37;27.13
68656;BME280;55638;51.122;13.606;2022-08-04T06:25:33;99968.34;;;30.49;27.13
68656;BME280;55638;51.122;13.606;2022-08-04T06:27:07;99974.75;;;30.60;26.92
68656;BME280;55638;51.122;13.606;2022-08-04T06:28:40;99980.06;;;30.67;26.26
68656;BME280;55638;51.122;13.606;2022-08-04T06:30:14;99972.00;;;30.75;26.30
68656;BME280;55638;51.122;13.606;2022-08-04T06:31:47;99975.94;;;30.85;26.12
68656;BME280;55638;51.122;13.606;2022-08-04T06:33:49;99976.53;;;30.92;26.22
68656;BME280;55638;51.122;13.606;2022-08-04T06:35:25;99984.88;;;30.97;26.07
68656;BME280;55638;51.122;13.606;2022-08-04T06:36:58;99983.50;;;31.05;25.87
68656;BME280;55638;51.122;13.606;2022-08-04T06:38:31;99974.28;;;31.09;25.84
68656;BME280;55638;51.122;13.606;2022-08-04T06:40:03;99981.56;;;31.15;25.77
68656;BME280;55638;51.122;13.606;2022-08-04T06:41:58;99974.28;;;31.19;25.73
68656;BME280;55638;51.122;13.606;2022-08-04T06:43:50;99975.72;;;31.32;25.95
68656;BME280;55638;51.122;13.606;2022-08-04T06:45:23;99977.66;;;31.42;25.67
68656;BME280;55638;51.122;13.606;2022-08-04T06:46:55;99980.44;;;31.52;25.41
68656;BME280;55638;51.122;13.606;2022-08-04T06:48:30;99982.94;;;31.64;25.19
68656;BME280;55638;51.122;13.606;2022-08-04T06:50:05;99975.41;;;31.75;24.74
68656;BME280;55638;51.122;13.606;2022-08-04T06:51:59;99976.47;;;31.89;25.12
68656;BME280;55638;51.122;13.606;2022-08-04T06:53:32;99981.19;;;31.99;24.86
68656;BME280;55638;51.122;13.606;2022-08-04T06:55:06;99983.09;;;32.08;24.77
68656;BME280;55638;51.122;13.606;2022-08-04T06:56:38;99970.25;;;32.18;24.83
68656;BME280;55638;51.122;13.606;2022-08-04T06:58:11;99975.78;;;32.28;24.72
68656;BME280;55638;51.122;13.606;2022-08-04T06:59:44;99977.69;;;32.37;24.19
68656;BME280;55638;51.122;13.606;2022-08-04T07:01:18;99976.28;;;32.45;23.88
68656;BME280;55638;51.122;13.606;2022-08-04T07:02:51;99984.28;;;32.57;24.13
68656;BME280;55638;51.122;13.606;2022-08-04T07:04:24;99982.06;;;32.64;23.92
68656;BME280;55638;51.122;13.606;2022-08-04T07:05:56;99976.09;;;32.76;24.09
68656;BME280;55638;51.122;13.606;2022-08-04T07:07:28;99977.72;;;32.87;23.56
68656;BME280;55638;51.122;13.606;2022-08-04T07:09:08;99985.47;;;32.95;23.46
68656;BME280;55638;51.122;13.606;2022-08-04T07:10:40;99979.78;;;33.05;23.04
68656;BME280;55638;51.122;13.606;2022-08-04T07:12:12;99976.09;;;33.15;22.95
68656;BME280;55638;51.122;13.606;2022-08-04T07:13:45;99977.97;;;33.25;23.16
68656;BME280;55638;51.122;13.606;2022-08-04T07:15:17;99979.63;;;33.31;23.19
68656;BME280;55638;51.122;13.606;2022-08-04T07:16:50;99977.59;;;33.37;23.06
68656;BME280;55638;51.122;13.606;2022-08-04T07:18:22;99975.28;;;33.44;22.92
68656;BME280;55638;51.122;13.606;2022-08-04T07:19:55;99973.84;;;33.51;22.73
68656;BME280;55638;51.122;13.606;2022-08-04T07:21:27;99978.56;;;33.56;22.69
68656;BME280;55638;51.122;13.606;2022-08-04T07:23:00;99970.66;;;33.63;22.71
68656;BME280;55638;51.122;13.606;2022-08-04T07:24:33;99967.81;;;33.68;22.75
68656;BME280;55638;51.122;13.606;2022-08-04T07:26:06;99967.75;;;33.73;22.53
68656;BME280;55638;51.122;13.606;2022-08-04T07:27:43;99973.81;;;33.81;22.17
68656;BME280;55638;51.122;13.606;2022-08-04T07:29:19;99966.44;;;33.90;22.05
68656;BME280;55638;51.122;13.606;2022-08-04T07:30:52;99971.09;;;33.99;22.16
68656;BME280;55638;51.122;13.606;2022-08-04T07:32:24;99965.97;;;34.07;22.05
68656;BME280;55638;51.122;13.606;2022-08-04T07:33:57;99962.22;;;34.16;21.82
68656;BME280;55638;51.122;13.606;2022-08-04T07:35:52;99967.38;;;34.28;21.99
68656;BME280;55638;51.122;13.606;2022-08-04T07:37:41;99963.94;;;34.36;21.88
68656;BME280;55638;51.122;13.606;2022-08-04T07:39:13;99963.59;;;34.43;21.27
68656;BME280;55638;51.122;13.606;2022-08-04T07:40:59;99962.59;;;34.53;21.48
68656;BME280;55638;51.122;13.606;2022-08-04T07:42:34;99955.47;;;34.60;21.43
68656;BME280;55638;51.122;13.606;2022-08-04T07:44:06;99963.50;;;34.67;21.27
68656;BME280;55638;51.122;13.606;2022-08-04T07:45:38;99959.78;;;34.72;21.19
68656;BME280;55638;51.122;13.606;2022-08-04T07:47:10;99961.91;;;34.80;21.02
68656;BME280;55638;51.122;13.606;2022-08-04T07:48:42;99961.56;;;34.86;21.10
68656;BME280;55638;51.122;13.606;2022-08-04T07:50:14;99959.50;;;34.92;21.02
68656;BME280;55638;51.122;13.606;2022-08-04T07:51:47;99966.72;;;34.98;20.99
68656;BME280;55638;51.122;13.606;2022-08-04T07:53:20;99968.25;;;35.04;20.86
68656;BME280;55638;51.122;13.606;2022-08-04T07:55:12;99965.16;;;35.06;20.69
68656;BME280;55638;51.122;13.606;2022-08-04T07:56:44;99960.09;;;35.08;20.49
68656;BME280;55638;51.122;13.606;2022-08-04T07:58:16;99961.44;;;35.10;20.63
68656;BME280;55638;51.122;13.606;2022-08-04T07:59:48;99960.81;;;35.13;20.44
68656;BME280;55638;51.122;13.606;2022-08-04T08:01:23;99961.88;;;35.18;20.25
68656;BME280;55638;51.122;13.606;2022-08-04T08:02:55;99963.84;;;35.17;20.30
68656;BME280;55638;51.122;13.606;2022-08-04T08:04:28;99965.19;;;35.20;20.13
68656;BME280;55638;51.122;13.606;2022-08-04T08:06:00;99960.75;;;35.19;20.17
68656;BME280;55638;51.122;13.606;2022-08-04T08:07:52;99965.53;;;35.18;20.28
68656;BME280;55638;51.122;13.606;2022-08-04T08:09:25;99965.19;;;35.20;20.19
68656;BME280;55638;51.122;13.606;2022-08-04T08:10:57;99955.13;;;35.19;20.13
68656;BME280;55638;51.122;13.606;2022-08-04T08:12:30;99957.94;;;35.19;20.26
68656;BME280;55638;51.122;13.606;2022-08-04T08:14:22;99956.16;;;35.23;20.15
68656;BME280;55638;51.122;13.606;2022-08-04T08:15:56;99961.75;;;35.28;20.35
68656;BME280;55638;51.122;13.606;2022-08-04T08:17:28;99954.91;;;35.34;20.32
68656;BME280;55638;51.122;13.606;2022-08-04T08:18:59;99957.50;;;35.44;19.91
68656;BME280;55638;51.122;13.606;2022-08-04T08:20:31;99957.41;;;35.49;19.91
68656;BME280;55638;51.122;13.606;2022-08-04T08:22:04;99947.75;;;35.55;19.87
68656;BME280;55638;51.122;13.606;2022-08-04T08:23:36;99946.22;;;35.63;19.86
68656;BME280;55638;51.122;13.606;2022-08-04T08:25:10;99948.84;;;35.73;19.81
68656;BME280;55638;51.122;13.606;2022-08-04T08:26:42;99952.28;;;35.84;19.94
68656;BME280;55638;51.122;13.606;2022-08-04T08:28:14;99938.00;;;35.94;19.81
68656;BME280;55638;51.122;13.606;2022-08-04T08:29:48;99944.22;;;36.05;19.69
68656;BME280;55638;51.122;13.606;2022-08-04T08:31:20;99941.47;;;36.19;19.52
68656;BME280;55638;51.122;13.606;2022-08-04T08:33:14;99941.09;;;36.34;19.42
68656;BME280;55638;51.122;13.606;2022-08-04T08:34:46;99940.56;;;36.46;19.42
68656;BME280;55638;51.122;13.606;2022-08-04T08:36:35;99944.50;;;36.59;19.39
68656;BME280;55638;51.122;13.606;2022-08-04T08:38:09;99946.97;;;36.74;18.95
68656;BME280;55638;51.122;13.606;2022-08-04T08:43:51;99944.31;;;37.14;18.96
68656;BME280;55638;51.122;13.606;2022-08-04T08:46:23;99941.72;;;37.26;18.87
68656;BME280;55638;51.122;13.606;2022-08-04T08:47:42;99946.47;;;37.39;18.36
68656;BME280;55638;51.122;13.606;2022-08-04T08:49:50;99947.84;;;37.51;18.16
68656;BME280;55638;51.122;13.606;2022-08-04T08:56:25;99947.22;;;37.85;18.15
68656;BME280;55638;51.122;13.606;2022-08-04T08:58:19;99939.78;;;37.98;17.82
68656;BME280;55638;51.122;13.606;2022-08-04T09:00:10;99942.31;;;38.08;17.78
68656;BME280;55638;51.122;13.606;2022-08-04T09:02:02;99940.84;;;38.19;17.45
68656;BME280;55638;51.122;13.606;2022-08-04T09:07:56;99941.59;;;38.51;17.21
68656;BME280;55638;51.122;13.606;2022-08-04T09:11:13;99940.44;;;38.61;17.35
68656;BME280;55638;51.122;13.606;2022-08-04T09:12:59;99940.25;;;38.74;17.06
68656;BME280;55638;51.122;13.606;2022-08-04T09:14:46;99947.91;;;38.83;16.10
68656;BME280;55638;51.122;13.606;2022-08-04T09:16:35;99940.28;;;38.92;16.91
68656;BME280;55638;51.122;13.606;2022-08-04T09:18:25;99935.94;;;38.94;16.67
68656;BME280;55638;51.122;13.606;2022-08-04T09:20:04;99941.44;;;38.99;16.33
68656;BME280;55638;51.122;13.606;2022-08-04T09:21:47;99939.94;;;39.02;16.32
68656;BME280;55638;51.122;13.606;2022-08-04T09:23:44;99928.81;;;39.06;16.24
68656;BME280;55638;51.122;13.606;2022-08-04T09:25:25;99938.94;;;39.07;15.95
68656;BME280;55638;51.122;13.606;2022-08-04T09:27:14;99940.25;;;39.09;16.02
68656;BME280;55638;51.122;13.606;2022-08-04T09:29:06;99929.94;;;39.13;15.86
68656;BME280;55638;51.122;13.606;2022-08-04T09:30:53;99932.09;;;39.16;15.97
68656;BME280;55638;51.122;13.606;2022-08-04T09:32:56;99936.41;;;39.22;15.64
68656;BME280;55638;51.122;13.606;2022-08-04T09:38:04;99934.69;;;39.47;15.67
68656;BME280;55638;51.122;13.606;2022-08-04T09:41:50;99921.84;;;39.59;15.51
68656;BME280;55638;51.122;13.606;2022-08-04T09:43:55;99922.34;;;39.61;15.64
68656;BME280;55638;51.122;13.606;2022-08-04T09:46:07;99921.84;;;39.67;15.68
68656;BME280;55638;51.122;13.606;2022-08-04T09:47:48;99926.47;;;39.72;15.04
68656;BME280;55638;51.122;13.606;2022-08-04T09:49:32;99917.16;;;39.71;14.67
68656;BME280;55638;51.122;13.606;2022-08-04T09:51:19;99922.13;;;39.75;14.70
68656;BME280;55638;51.122;13.606;2022-08-04T09:53:34;99919.66;;;39.73;14.65
68656;BME280;55638;51.122;13.606;2022-08-04T09:55:17;99913.16;;;39.72;14.71
68656;BME280;55638;51.122;13.606;2022-08-04T10:00:52;99915.19;;;39.63;14.67
68656;BME280;55638;51.122;13.606;2022-08-04T10:02:35;99913.38;;;39.59;14.83
68656;BME280;55638;51.122;13.606;2022-08-04T10:04:12;99916.19;;;39.59;14.54
68656;BME280;55638;51.122;13.606;2022-08-04T10:07:43;99907.94;;;39.45;14.71
68656;BME280;55638;51.122;13.606;2022-08-04T10:14:04;99908.50;;;39.21;14.45
68656;BME280;55638;51.122;13.606;2022-08-04T10:15:48;99909.34;;;39.13;13.60
68656;BME280;55638;51.122;13.606;2022-08-04T10:19:26;99903.41;;;38.97;14.61
68656;BME280;55638;51.122;13.606;2022-08-04T10:21:08;99898.94;;;38.96;14.30
68656;BME280;55638;51.122;13.606;2022-08-04T10:23:08;99906.56;;;38.95;14.65
68656;BME280;55638;51.122;13.606;2022-08-04T10:26:55;99897.09;;;39.00;14.44
68656;BME280;55638;51.122;13.606;2022-08-04T10:28:30;99897.41;;;39.07;14.51
68656;BME280;55638;51.122;13.606;2022-08-04T10:30:06;99897.41;;;39.07;14.44
68656;BME280;55638;51.122;13.606;2022-08-04T10:31:54;99896.72;;;39.10;14.30
68656;BME280;55638;51.122;13.606;2022-08-04T10:33:32;99897.41;;;39.07;14.16
68656;BME280;55638;51.122;13.606;2022-08-04T10:35:36;99893.44;;;38.99;14.43
68656;BME280;55638;51.122;13.606;2022-08-04T10:37:20;99890.97;;;38.98;14.29
68656;BME280;55638;51.122;13.606;2022-08-04T10:39:19;99889.78;;;38.99;14.56
68656;BME280;55638;51.122;13.606;2022-08-04T10:41:26;99890.63;;;38.99;14.71
68656;BME280;55638;51.122;13.606;2022-08-04T10:43:14;99886.78;;;39.04;14.54
68656;BME280;55638;51.122;13.606;2022-08-04T10:45:16;99888.59;;;39.09;15.10
68656;BME280;55638;51.122;13.606;2022-08-04T10:47:13;99878.94;;;39.18;14.53
68656;BME280;55638;51.122;13.606;2022-08-04T10:48:58;99877.56;;;39.33;14.66
68656;BME280;55638;51.122;13.606;2022-08-04T10:50:33;99873.22;;;39.44;14.60
68656;BME280;55638;51.122;13.606;2022-08-04T10:52:19;99868.38;;;39.54;14.48
68656;BME280;55638;51.122;13.606;2022-08-04T10:53:59;99872.16;;;39.66;14.44
68656;BME280;55638;51.122;13.606;2022-08-04T10:55:37;99873.41;;;39.78;14.26
68656;BME280;55638;51.122;13.606;2022-08-04T10:57:39;99873.50;;;39.90;14.29
68656;BME280;55638;51.122;13.606;2022-08-04T10:59:14;99872.81;;;39.93;14.03
68656;BME280;55638;51.122;13.606;2022-08-04T11:00:46;99871.41;;;40.08;14.26
68656;BME280;55638;51.122;13.606;2022-08-04T11:02:45;99870.03;;;40.14;13.82
68656;BME280;55638;51.122;13.606;2022-08-04T11:04:25;99874.00;;;40.22;13.70
68656;BME280;55638;51.122;13.606;2022-08-04T11:06:00;99871.63;;;40.24;13.67
68656;BME280;55638;51.122;13.606;2022-08-04T11:07:36;99875.78;;;40.26;13.49